createdAt,value
2022-12-27T00:01:24.587Z,35.25
2022-12-27T00:03:50.875Z,35.15
2022-12-27T00:06:17.158Z,35.63
2022-12-27T00:08:44.161Z,34.45
2022-12-27T00:11:10.977Z,31.90
2022-12-27T00:13:37.354Z,32.90
2022-12-27T00:16:03.696Z,32.80
2022-12-27T00:18:30.137Z,33.75
2022-12-27T00:20:57.544Z,33.33
2022-12-27T00:23:24.451Z,30.25
2022-12-27T00:25:50.895Z,31.30
2022-12-27T00:28:17.174Z,31.92
2022-12-27T00:30:43.498Z,32.20
2022-12-27T00:33:09.862Z,30.25
2022-12-27T00:35:36.239Z,30.73
2022-12-27T00:38:03.893Z,30.45
2022-12-27T00:40:30.416Z,32.03
2022-12-27T00:42:57.157Z,29.60
2022-12-27T00:45:23.504Z,30.52
2022-12-27T00:47:50.337Z,29.25
2022-12-27T00:50:17.254Z,27.52
2022-12-27T00:52:44.022Z,29.08
2022-12-27T00:55:10.398Z,28.85
2022-12-27T00:57:36.871Z,28.67
2022-12-27T01:00:09.588Z,26.52
2022-12-27T01:02:37.224Z,27.65
2022-12-27T01:05:03.603Z,26.25
2022-12-27T01:07:29.927Z,26.77
2022-12-27T01:09:56.476Z,28.05
2022-12-27T01:12:23.240Z,26.30
2022-12-27T01:14:49.938Z,24.60
2022-12-27T01:17:16.285Z,25.10
2022-12-27T01:19:42.640Z,26.70
2022-12-27T01:22:09.016Z,27.23
2022-12-27T01:24:35.631Z,23.00
2022-12-27T01:27:02.406Z,23.95
2022-12-27T01:29:28.727Z,22.23
2022-12-27T01:31:55.116Z,22.52
2022-12-27T01:34:21.646Z,24.27
2022-12-27T01:36:48.385Z,23.70
2022-12-27T01:39:14.943Z,23.50
2022-12-27T01:41:41.543Z,22.67
2022-12-27T01:44:08.211Z,23.70
2022-12-27T01:46:35.186Z,20.90
2022-12-27T01:49:05.096Z,22.27
2022-12-27T01:51:31.662Z,20.40
2022-12-27T01:53:58.015Z,19.00
2022-12-27T01:56:24.841Z,20.58
2022-12-27T01:58:51.231Z,23.02
2022-12-27T02:01:17.718Z,21.45
2022-12-27T02:03:44.962Z,20.67
2022-12-27T02:06:11.959Z,19.90
2022-12-27T02:08:38.690Z,18.35
2022-12-27T02:11:05.295Z,18.75
2022-12-27T02:13:32.118Z,20.10
2022-12-27T02:15:58.702Z,19.75
2022-12-27T02:18:25.767Z,19.00
2022-12-27T02:20:52.176Z,17.35
2022-12-27T02:23:18.510Z,17.85
2022-12-27T02:25:45.290Z,19.90
2022-12-27T02:28:11.862Z,18.65
2022-12-27T02:30:38.268Z,18.55
2022-12-27T02:33:05.251Z,20.63
2022-12-27T02:35:31.581Z,18.30
2022-12-27T02:37:57.903Z,18.15
2022-12-27T02:40:24.181Z,19.02
2022-12-27T02:42:50.569Z,17.15
2022-12-27T02:45:17.011Z,16.45
2022-12-27T02:47:43.749Z,15.50
2022-12-27T02:50:10.029Z,17.90
2022-12-27T02:52:36.457Z,16.63
2022-12-27T02:55:03.244Z,16.05
2022-12-27T02:57:29.820Z,16.10
2022-12-27T02:59:56.078Z,15.18
2022-12-27T03:02:22.826Z,17.20
2022-12-27T03:04:49.644Z,14.77
2022-12-27T03:07:15.905Z,16.10
2022-12-27T03:09:42.405Z,15.35
2022-12-27T03:12:09.144Z,16.90
2022-12-27T03:14:35.884Z,15.27
2022-12-27T03:17:02.730Z,14.43
2022-12-27T03:19:29.438Z,14.63
2022-12-27T03:21:56.097Z,14.82
2022-12-27T03:24:22.646Z,12.52
2022-12-27T03:26:49.037Z,14.88
2022-12-27T03:29:15.406Z,14.75
2022-12-27T03:31:41.678Z,13.43
2022-12-27T03:34:08.239Z,15.00
2022-12-27T03:36:34.733Z,12.85
2022-12-27T03:39:01.127Z,13.25
2022-12-27T03:41:27.402Z,14.45
2022-12-27T03:43:53.848Z,12.77
2022-12-27T03:46:20.235Z,13.07
2022-12-27T03:48:46.904Z,14.38
2022-12-27T03:51:13.218Z,15.10
2022-12-27T03:53:39.572Z,12.45
2022-12-27T03:56:05.971Z,11.88
2022-12-27T03:58:32.682Z,12.15
2022-12-27T04:00:59.606Z,12.05
2022-12-27T04:03:26.512Z,11.82
2022-12-27T04:05:53.268Z,13.38
2022-12-27T04:08:19.689Z,12.20
2022-12-27T04:10:46.044Z,12.13
2022-12-27T04:13:12.434Z,11.90
2022-12-27T04:15:38.853Z,10.82
2022-12-27T04:18:05.742Z,12.35
2022-12-27T04:20:32.016Z,10.50
2022-12-27T04:22:58.380Z,13.20
2022-12-27T04:25:24.678Z,10.13
2022-12-27T04:27:51.084Z,10.73
2022-12-27T04:30:17.619Z,11.88
2022-12-27T04:32:43.998Z,10.80
2022-12-27T04:35:10.293Z,10.65
2022-12-27T04:37:37.184Z,10.27
2022-12-27T04:40:03.840Z,12.77
2022-12-27T04:42:30.239Z,9.70
2022-12-27T04:44:56.985Z,11.48
2022-12-27T04:47:23.360Z,9.02
2022-12-27T04:49:49.772Z,11.80
2022-12-27T04:52:16.144Z,8.80
2022-12-27T04:54:42.460Z,9.10
2022-12-27T04:57:09.008Z,10.40
2022-12-27T04:59:35.389Z,9.88
2022-12-27T05:02:01.969Z,12.00
2022-12-27T05:04:28.426Z,9.05
2022-12-27T05:06:55.059Z,10.80
2022-12-27T05:09:23.304Z,9.93
2022-12-27T05:11:49.842Z,8.98
2022-12-27T05:14:16.112Z,9.05
2022-12-27T05:16:42.885Z,9.37
2022-12-27T05:19:09.520Z,8.52
2022-12-27T05:21:36.405Z,10.00
2022-12-27T05:24:05.565Z,11.63
2022-12-27T05:26:32.384Z,10.98
2022-12-27T05:28:58.738Z,8.02
2022-12-27T05:31:26.135Z,8.40
2022-12-27T05:33:52.769Z,8.93
2022-12-27T05:36:19.205Z,9.25
2022-12-27T05:38:45.590Z,9.77
2022-12-27T05:41:12.438Z,7.90
2022-12-27T05:43:38.811Z,9.18
2022-12-27T05:46:05.577Z,8.43
2022-12-27T05:48:32.383Z,7.25
2022-12-27T05:50:58.709Z,7.13
2022-12-27T05:53:25.627Z,8.50
2022-12-27T05:55:52.009Z,9.63
2022-12-27T05:58:18.372Z,8.18
2022-12-27T06:00:44.732Z,8.88
2022-12-27T06:03:11.205Z,7.78
2022-12-27T06:05:37.642Z,6.63
2022-12-27T06:08:04.637Z,8.73
2022-12-27T06:10:31.071Z,7.28
2022-12-27T06:12:57.450Z,7.63
2022-12-27T06:15:24.235Z,10.48
2022-12-27T06:17:50.670Z,8.52
2022-12-27T06:20:17.609Z,6.47
2022-12-27T06:22:44.174Z,7.43
2022-12-27T06:25:14.328Z,7.25
2022-12-27T06:30:07.807Z,8.73
2022-12-27T06:32:34.502Z,6.60
2022-12-27T06:35:00.825Z,8.18
2022-12-27T06:37:27.667Z,7.18
2022-12-27T06:39:53.998Z,7.32
2022-12-27T06:42:20.386Z,6.85
2022-12-27T06:44:47.203Z,6.47
2022-12-27T06:47:13.734Z,5.93
2022-12-27T06:49:40.055Z,6.63
2022-12-27T06:52:06.411Z,5.75
2022-12-27T06:54:32.826Z,7.18
2022-12-27T06:56:59.505Z,6.63
2022-12-27T06:59:25.859Z,6.80
2022-12-27T07:01:52.526Z,6.25
2022-12-27T07:04:19.080Z,7.45
2022-12-27T07:06:45.596Z,8.13
2022-12-27T07:09:12.258Z,6.70
2022-12-27T07:11:38.983Z,6.63
2022-12-27T07:14:05.277Z,6.20
2022-12-27T07:16:31.856Z,6.72
2022-12-27T07:18:58.251Z,6.60
2022-12-27T07:21:24.730Z,5.75
2022-12-27T07:23:51.089Z,5.00
2022-12-27T07:26:17.547Z,6.05
2022-12-27T07:28:44.260Z,4.53
2022-12-27T07:31:10.542Z,5.75
2022-12-27T07:33:37.051Z,6.78
2022-12-27T07:36:03.498Z,6.53
2022-12-27T07:38:29.899Z,6.20
2022-12-27T07:40:56.982Z,5.22
2022-12-27T07:43:23.428Z,5.93
2022-12-27T07:45:49.777Z,5.93
2022-12-27T07:48:16.903Z,6.28
2022-12-27T07:50:43.378Z,6.28
2022-12-27T07:53:10.307Z,5.68
2022-12-27T07:55:37.041Z,5.93
2022-12-27T07:58:03.651Z,5.72
2022-12-27T08:00:29.919Z,6.75
2022-12-27T08:02:56.830Z,6.25
2022-12-27T08:05:27.562Z,9.15
2022-12-27T08:07:54.289Z,4.82
2022-12-27T08:10:20.571Z,6.13
2022-12-27T08:12:47.010Z,5.85
2022-12-27T08:15:13.540Z,4.95
2022-12-27T08:17:39.956Z,5.18
2022-12-27T08:20:06.513Z,7.68
2022-12-27T08:22:33.349Z,5.10
2022-12-27T08:24:59.650Z,4.40
2022-12-27T08:27:26.016Z,5.72
2022-12-27T08:29:52.653Z,7.00
2022-12-27T08:32:19.511Z,6.63
2022-12-27T08:34:45.929Z,10.02
2022-12-27T08:37:12.343Z,10.50
2022-12-27T08:39:39.523Z,6.50
2022-12-27T08:42:05.904Z,7.57
2022-12-27T08:44:32.778Z,11.63
2022-12-27T08:46:59.739Z,5.40
2022-12-27T08:49:26.074Z,8.32
2022-12-27T08:51:52.905Z,7.15
2022-12-27T08:54:19.555Z,7.25
2022-12-27T08:56:46.269Z,6.78
2022-12-27T08:59:13.534Z,5.22
2022-12-27T09:01:40.077Z,8.13
2022-12-27T09:04:06.944Z,9.80
2022-12-27T09:06:33.551Z,6.80
2022-12-27T09:08:59.946Z,7.35
2022-12-27T09:11:26.394Z,6.20
2022-12-27T09:13:53.309Z,8.05
2022-12-27T09:16:19.867Z,6.95
2022-12-27T09:18:46.765Z,7.53
2022-12-27T09:21:13.924Z,7.57
2022-12-27T09:23:40.621Z,6.50
2022-12-27T09:26:07.323Z,7.57
2022-12-27T09:28:34.646Z,6.90
2022-12-27T09:31:00.990Z,8.00
2022-12-27T09:33:27.383Z,8.80
2022-12-27T09:35:54.018Z,8.50
2022-12-27T09:38:20.356Z,10.50
2022-12-27T09:40:46.881Z,9.50
2022-12-27T09:43:23.880Z,6.47
2022-12-27T09:45:51.872Z,10.02
2022-12-27T09:48:18.288Z,11.05
2022-12-27T09:50:44.835Z,8.52
2022-12-27T09:53:11.386Z,10.65
2022-12-27T09:55:38.004Z,10.23
2022-12-27T09:58:05.147Z,9.07
2022-12-27T10:00:34.601Z,7.10
2022-12-27T10:03:02.358Z,10.00
2022-12-27T10:05:28.747Z,7.40
2022-12-27T10:07:55.071Z,7.43
2022-12-27T10:10:21.550Z,8.40
2022-12-27T10:12:47.946Z,9.52
2022-12-27T10:15:14.538Z,9.05
2022-12-27T10:17:41.192Z,10.32
2022-12-27T10:20:07.551Z,10.63
2022-12-27T10:22:34.297Z,10.48
2022-12-27T10:25:00.888Z,8.02
2022-12-27T10:27:27.524Z,7.90
2022-12-27T10:29:53.950Z,7.75
2022-12-27T10:32:20.564Z,7.13
2022-12-27T10:34:47.055Z,7.70
2022-12-27T10:37:13.647Z,8.93
2022-12-27T10:39:40.015Z,10.27
2022-12-27T10:42:06.403Z,10.63
2022-12-27T10:44:32.759Z,9.00
2022-12-27T10:46:59.082Z,9.52
2022-12-27T10:49:25.610Z,7.78
2022-12-27T10:51:52.056Z,10.52
2022-12-27T10:54:18.874Z,9.70
2022-12-27T10:56:45.543Z,9.80
2022-12-27T10:59:11.906Z,8.70
2022-12-27T11:01:38.734Z,10.57
2022-12-27T11:04:05.510Z,9.10
2022-12-27T11:06:31.804Z,7.95
2022-12-27T11:08:58.111Z,8.30
2022-12-27T11:11:24.575Z,8.95
2022-12-27T11:13:51.005Z,7.32
2022-12-27T11:16:17.626Z,10.13
2022-12-27T11:18:43.947Z,7.47
2022-12-27T11:21:16.137Z,6.85
2022-12-27T11:23:48.175Z,7.53
2022-12-27T11:26:14.586Z,9.95
2022-12-27T11:28:41.177Z,11.50
2022-12-27T11:31:07.783Z,8.80
2022-12-27T11:33:34.305Z,8.05
2022-12-27T11:36:00.990Z,8.88
2022-12-27T11:38:27.320Z,8.13
2022-12-27T11:40:53.816Z,8.30
2022-12-27T11:43:20.712Z,8.15
2022-12-27T11:45:47.814Z,9.13
2022-12-27T11:48:14.528Z,8.40
2022-12-27T11:50:41.007Z,8.02
2022-12-27T11:53:07.844Z,7.55
2022-12-27T11:55:34.876Z,11.63
2022-12-27T11:58:01.657Z,8.15
2022-12-27T12:00:28.033Z,8.35
2022-12-27T12:02:54.491Z,8.95
2022-12-27T12:05:21.194Z,6.43
2022-12-27T12:07:47.883Z,6.47
2022-12-27T12:10:14.323Z,7.57
2022-12-27T12:12:40.875Z,8.02
2022-12-27T12:15:07.382Z,6.85
2022-12-27T12:17:36.309Z,6.78
2022-12-27T12:20:03.164Z,8.50
2022-12-27T12:22:29.483Z,8.15
2022-12-27T12:24:55.819Z,8.10
2022-12-27T12:27:22.146Z,9.27
2022-12-27T12:29:48.541Z,7.60
2022-12-27T12:32:14.914Z,8.52
2022-12-27T12:34:41.243Z,9.40
2022-12-27T12:37:08.131Z,6.65
2022-12-27T12:39:34.533Z,6.13
2022-12-27T12:42:01.114Z,6.47
2022-12-27T12:44:27.523Z,8.75
2022-12-27T12:46:53.943Z,7.05
2022-12-27T12:49:20.541Z,8.05
2022-12-27T12:51:47.535Z,6.60
2022-12-27T12:54:13.946Z,7.70
2022-12-27T12:56:40.623Z,7.45
2022-12-27T12:59:07.299Z,6.93
2022-12-27T13:01:33.701Z,6.55
2022-12-27T13:04:00.167Z,6.63
2022-12-27T13:06:27.467Z,6.47
2022-12-27T13:08:54.135Z,5.82
2022-12-27T13:11:20.975Z,6.93
2022-12-27T13:13:47.305Z,6.15
2022-12-27T13:16:13.680Z,8.45
2022-12-27T13:18:40.575Z,8.00
2022-12-27T13:21:07.159Z,7.40
2022-12-27T13:23:33.485Z,5.68
2022-12-27T13:25:59.826Z,5.53
2022-12-27T13:28:26.417Z,6.43
2022-12-27T13:30:53.454Z,7.57
2022-12-27T13:33:19.968Z,7.50
2022-12-27T13:35:46.388Z,7.85
2022-12-27T13:38:12.753Z,10.35
2022-12-27T13:40:39.515Z,11.55
2022-12-27T13:43:05.837Z,14.00
2022-12-27T13:45:32.321Z,14.85
2022-12-27T13:47:58.648Z,19.52
2022-12-27T13:50:25.104Z,22.77
2022-12-27T13:52:57.540Z,23.58
2022-12-27T13:55:27.263Z,22.80
2022-12-27T13:57:54.316Z,22.75
2022-12-27T14:00:20.648Z,25.25
2022-12-27T14:02:47.521Z,25.50
2022-12-27T14:05:14.059Z,25.52
2022-12-27T14:07:40.709Z,25.00
2022-12-27T14:10:07.510Z,25.95
2022-12-27T14:12:34.770Z,33.97
2022-12-27T14:15:01.372Z,29.52
2022-12-27T14:17:28.002Z,29.15
2022-12-27T14:19:54.381Z,30.10
2022-12-27T14:22:20.727Z,26.52
2022-12-27T14:24:47.734Z,26.42
2022-12-27T14:27:14.157Z,27.13
2022-12-27T14:29:40.511Z,28.65
2022-12-27T14:32:07.055Z,28.40
2022-12-27T14:34:33.715Z,25.75
2022-12-27T14:37:00.545Z,26.90
2022-12-27T14:39:27.028Z,25.73
2022-12-27T14:41:53.533Z,25.48
2022-12-27T14:44:19.899Z,25.23
2022-12-27T14:46:46.345Z,27.17
2022-12-27T14:49:13.589Z,26.23
2022-12-27T14:54:27.020Z,24.83
2022-12-27T14:56:53.778Z,25.58
2022-12-27T14:59:20.141Z,26.73
2022-12-27T15:01:46.891Z,25.25
2022-12-27T15:04:13.401Z,27.92
2022-12-27T15:06:39.920Z,26.17
2022-12-27T15:09:07.461Z,26.35
2022-12-27T15:11:34.426Z,27.58
2022-12-27T15:14:00.796Z,26.20
2022-12-27T15:16:27.809Z,25.42
2022-12-27T15:18:54.153Z,25.00
2022-12-27T15:21:20.474Z,26.45
2022-12-27T15:23:47.003Z,24.52
2022-12-27T15:26:13.717Z,23.85
2022-12-27T15:28:40.564Z,26.23
2022-12-27T15:31:07.108Z,24.83
2022-12-27T15:33:33.450Z,23.27
2022-12-27T15:35:59.816Z,23.58
2022-12-27T15:38:26.784Z,22.42
2022-12-27T15:40:53.249Z,24.92
2022-12-27T15:43:19.563Z,23.33
2022-12-27T15:45:45.987Z,21.70
2022-12-27T15:48:12.319Z,22.27
2022-12-27T15:50:38.977Z,20.40
2022-12-27T15:53:05.890Z,20.95
2022-12-27T15:55:32.301Z,21.27
2022-12-27T15:57:59.018Z,18.70
2022-12-27T16:00:27.126Z,20.23
2022-12-27T16:02:56.674Z,21.73
2022-12-27T16:05:23.168Z,18.77
2022-12-27T16:07:49.975Z,18.65
2022-12-27T16:10:16.832Z,18.08
2022-12-27T16:12:43.232Z,18.27
2022-12-27T16:15:09.564Z,19.90
2022-12-27T16:17:36.319Z,17.80
2022-12-27T16:20:02.825Z,18.00
2022-12-27T16:22:29.822Z,19.85
2022-12-27T16:24:56.200Z,18.02
2022-12-27T16:27:23.015Z,16.48
2022-12-27T16:29:49.367Z,17.33
2022-12-27T16:32:15.787Z,15.55
2022-12-27T16:34:42.199Z,17.45
2022-12-27T16:37:08.546Z,17.48
2022-12-27T16:39:35.088Z,15.45
2022-12-27T16:42:01.988Z,17.35
2022-12-27T16:44:30.646Z,15.63
2022-12-27T16:47:00.349Z,16.10
2022-12-27T16:49:26.755Z,15.63
2022-12-27T16:51:53.105Z,16.88
2022-12-27T16:54:19.987Z,16.40
2022-12-27T16:56:46.403Z,15.70
2022-12-27T16:59:12.746Z,15.18
2022-12-27T17:01:39.282Z,14.88
2022-12-27T17:04:05.728Z,15.45
2022-12-27T17:06:33.497Z,16.88
2022-12-27T17:16:58.227Z,114.72
2022-12-27T17:19:25.023Z,127.80
2022-12-27T17:21:51.792Z,113.95
2022-12-27T17:24:18.579Z,110.07
2022-12-27T17:26:45.779Z,98.47
2022-12-27T17:29:12.512Z,87.55
2022-12-27T17:31:39.258Z,84.70
2022-12-27T17:34:05.676Z,78.93
2022-12-27T17:36:32.983Z,75.32
2022-12-27T17:38:59.947Z,72.15
2022-12-27T17:41:26.626Z,62.47
2022-12-27T17:43:53.517Z,60.88
2022-12-27T17:46:20.656Z,56.50
2022-12-27T17:48:47.318Z,58.58
2022-12-27T17:51:14.468Z,51.92
2022-12-27T17:53:41.041Z,50.88
2022-12-27T17:56:07.616Z,45.53
2022-12-27T17:58:34.213Z,46.13
2022-12-27T18:01:00.873Z,77.50
2022-12-27T18:03:27.322Z,197.85
2022-12-27T18:05:53.694Z,240.55
2022-12-27T18:08:20.001Z,203.15
2022-12-27T18:10:46.411Z,184.43
2022-12-27T18:13:13.247Z,181.13
2022-12-27T18:15:39.673Z,329.98
2022-12-27T18:18:06.380Z,326.30
2022-12-27T18:20:33.167Z,290.27
2022-12-27T18:23:00.175Z,277.52
2022-12-27T18:25:26.583Z,258.67
2022-12-27T18:27:52.955Z,238.43
2022-12-27T18:30:19.394Z,232.93
2022-12-27T18:32:45.705Z,225.07
2022-12-27T18:35:11.998Z,206.32
2022-12-27T18:37:38.405Z,200.93
2022-12-27T18:40:04.713Z,195.45
2022-12-27T18:42:31.656Z,183.90
2022-12-27T18:44:58.929Z,182.57
2022-12-27T18:47:25.295Z,178.02
2022-12-27T18:49:51.860Z,173.63
2022-12-27T18:52:18.292Z,181.32
2022-12-27T18:54:44.681Z,174.98
2022-12-27T18:57:11.629Z,183.20
2022-12-27T18:59:37.993Z,176.73
2022-12-27T19:02:04.507Z,229.32
2022-12-27T19:04:31.022Z,277.80
2022-12-27T19:06:57.686Z,270.85
2022-12-27T19:09:24.544Z,266.98
2022-12-27T19:11:51.464Z,246.85
2022-12-27T19:14:17.831Z,230.43
2022-12-27T19:16:44.956Z,225.48
2022-12-27T19:19:11.292Z,264.80
2022-12-27T19:21:37.643Z,307.60
2022-12-27T19:24:04.045Z,268.27
2022-12-27T19:26:30.990Z,244.02
2022-12-27T19:28:57.944Z,241.93
2022-12-27T19:31:24.806Z,230.77
2022-12-27T19:33:51.534Z,209.82
2022-12-27T19:36:18.256Z,198.45
2022-12-27T19:41:24.747Z,201.65
2022-12-27T19:43:51.742Z,185.52
2022-12-27T19:46:18.304Z,258.65
2022-12-27T19:49:07.723Z,279.13
2022-12-27T19:51:31.623Z,304.85
2022-12-27T19:53:58.217Z,272.33
2022-12-27T19:56:24.864Z,259.63
2022-12-27T19:58:51.478Z,242.48
2022-12-27T20:01:17.978Z,233.48
2022-12-27T20:03:44.616Z,219.77
2022-12-27T20:06:15.363Z,337.08
2022-12-27T20:08:48.147Z,367.33
2022-12-27T20:11:15.701Z,330.50
2022-12-27T20:13:42.717Z,309.17
2022-12-27T20:16:09.509Z,299.20
2022-12-27T20:18:36.337Z,282.20
2022-12-27T20:21:03.036Z,270.45
2022-12-27T20:23:29.522Z,259.42
2022-12-27T20:25:56.240Z,251.07
2022-12-27T20:28:22.971Z,236.40
2022-12-27T20:30:49.340Z,227.98
2022-12-27T20:33:16.003Z,201.57
2022-12-27T20:35:42.744Z,168.38
2022-12-27T20:38:09.801Z,141.10
2022-12-27T20:40:36.698Z,113.75
2022-12-27T20:43:03.795Z,102.43
2022-12-27T20:45:31.172Z,100.40
2022-12-27T20:47:58.092Z,94.47
2022-12-27T20:50:24.963Z,91.75
2022-12-27T20:52:51.303Z,88.22
2022-12-27T20:55:17.549Z,77.28
2022-12-27T20:57:44.571Z,78.32
2022-12-27T21:00:11.275Z,73.90
2022-12-27T21:02:37.686Z,75.10
2022-12-27T21:05:04.276Z,70.68
2022-12-27T21:07:31.270Z,67.30
2022-12-27T21:09:57.616Z,142.57
2022-12-27T21:12:24.534Z,185.43
2022-12-27T21:14:50.975Z,172.32
2022-12-27T21:17:17.654Z,160.70
2022-12-27T21:19:44.133Z,154.98
2022-12-27T21:22:10.643Z,143.68
2022-12-27T21:24:37.661Z,139.13
2022-12-27T21:27:04.358Z,131.63
2022-12-27T21:29:31.382Z,224.20
2022-12-27T21:31:57.687Z,291.42
2022-12-27T21:34:24.640Z,298.05
2022-12-27T21:36:50.976Z,274.52
2022-12-27T21:39:17.622Z,255.10
2022-12-27T21:41:44.703Z,247.75
2022-12-27T21:44:11.102Z,229.95
2022-12-27T21:46:37.762Z,223.63
2022-12-27T21:49:04.143Z,209.25
2022-12-27T21:51:31.243Z,205.40
2022-12-27T21:53:58.080Z,316.23
2022-12-27T21:56:24.697Z,385.38
2022-12-27T21:58:51.279Z,360.25
2022-12-27T22:01:18.384Z,329.35
2022-12-27T22:03:45.402Z,316.15
2022-12-27T22:06:11.872Z,308.60
2022-12-27T22:08:38.150Z,280.55
2022-12-27T22:11:04.814Z,265.75
2022-12-27T22:13:31.954Z,256.70
2022-12-27T22:15:59.031Z,254.52
2022-12-27T22:18:25.628Z,233.30
2022-12-27T22:20:52.079Z,176.68
2022-12-27T22:23:18.764Z,222.07
2022-12-27T22:25:45.406Z,269.73
2022-12-27T22:28:11.975Z,312.00
2022-12-27T22:30:38.267Z,288.52
2022-12-27T22:33:05.742Z,289.40
2022-12-27T22:35:32.902Z,277.67
2022-12-27T22:37:59.687Z,273.20
2022-12-27T22:40:40.855Z,262.15
2022-12-27T22:43:13.023Z,256.27
2022-12-27T22:45:39.521Z,423.60
2022-12-27T22:48:06.237Z,533.22
2022-12-27T22:50:32.637Z,503.17
2022-12-27T22:52:59.291Z,473.63
2022-12-27T22:55:26.993Z,449.05
2022-12-27T22:57:54.409Z,424.02
2022-12-27T23:00:20.987Z,412.83
2022-12-27T23:02:47.843Z,405.77
2022-12-27T23:05:15.610Z,399.15
2022-12-27T23:08:04.220Z,380.70
2022-12-27T23:10:28.443Z,377.17
2022-12-27T23:12:55.221Z,366.65
2022-12-27T23:15:21.666Z,360.98
2022-12-27T23:17:47.948Z,346.98
2022-12-27T23:20:15.449Z,344.33
2022-12-27T23:22:41.872Z,334.50
2022-12-27T23:25:08.381Z,326.90
2022-12-27T23:27:35.288Z,325.58
2022-12-27T23:30:01.679Z,309.73
2022-12-27T23:32:28.179Z,311.73
2022-12-27T23:34:54.857Z,296.25
2022-12-27T23:37:21.223Z,290.13
2022-12-27T23:39:47.927Z,285.60
2022-12-27T23:42:14.358Z,283.30
2022-12-27T23:44:40.755Z,269.80
2022-12-27T23:47:07.197Z,263.75
2022-12-27T23:49:34.181Z,270.25
2022-12-27T23:52:00.809Z,258.15
2022-12-27T23:54:27.478Z,254.48
2022-12-27T23:56:53.839Z,245.70
2022-12-27T23:59:20.230Z,242.48
